KHLR

Hood AAF Airport

Fort Hood(Killeen), Texas, USA
METAR KHLR 141618Z AUTO 33019G26KT 10SM OVC015 06/02 A2999 RMK AO2 SLP158
Observed Flight Rules
Dec-14 @ 16:18 UTC (45 minutes ago) Marginal Visual Flight Rules
Wind Visibility Clouds
330° at 19 knots
 Gusting to 26 knots
10 miles
  • Overcast at 1,500' AGL
Temperatures Readings
Current 6°C / 43°F
Dewpoint 2°C / 36°F
Humidity 76%
Altimeter 29.99" Hg
Pressure 1015.8 hPa
Elevation 283
METAR KHLR 141618Z AUTO 33019G26KT 10SM OVC015 06/02 A2999 RMK AO2 SLP158
Observed Flight Rules
Dec-14 @ 16:18 UTC
(45 minutes ago)
MVFR
Wind Visibility
330° at 19 knots
 Gusting to 26 knots
10 miles
Clouds
  • Overcast at 1,500' AGL
Temperature Dewpoint
6°C / 43°F 2°C / 36°F
Humidity Altimeter Pressure
76% 29.99" Hg 1015.8 hPa